Time,TemperatureF,DewpointF,PressureIn,WindDirection,WindDirectionDegrees,WindSpeedMPH,WindSpeedGustMPH,Humidity,HourlyPrecipIn,Conditions,Clouds,dailyrainin,SoftwareType,DateUTC
2013-01-27 00:03:00,61.0,60.0,30.20,NE,34,2.0,3.0,96,-99.99,,,-99.99,,2013-01-27 05:03:00,
2013-01-27 00:12:00,61.0,60.0,30.20,NNE,28,3.0,4.0,96,-99.99,,,-99.99,,2013-01-27 05:12:00,
2013-01-27 00:22:00,61.0,60.0,30.20,NNE,28,3.0,4.0,96,-99.99,,,-99.99,,2013-01-27 05:22:00,
2013-01-27 00:32:00,61.0,60.0,30.20,NNE,28,3.0,4.0,96,-99.99,,,-99.99,,2013-01-27 05:32:00,
2013-01-27 00:42:00,61.0,59.0,30.20,NNE,27,3.0,4.0,95,-99.99,,,-99.99,,2013-01-27 05:42:00,
2013-01-27 00:52:00,61.0,59.0,30.19,NE,35,3.0,5.0,95,-99.99,,,-99.99,,2013-01-27 05:52:00,
2013-01-27 01:02:00,61.0,59.0,30.19,NE,35,3.0,5.0,95,-99.99,,,-99.99,,2013-01-27 06:02:00,
2013-01-27 01:11:00,61.0,59.0,30.20,NNE,23,4.0,5.0,95,-99.99,,,-99.99,,2013-01-27 06:11:00,
2013-01-27 01:21:00,61.0,59.0,30.20,NNE,23,4.0,5.0,95,-99.99,,,-99.99,,2013-01-27 06:21:00,
2013-01-27 01:32:00,61.0,59.0,30.20,NNE,30,4.0,5.0,94,-99.99,,,-99.99,,2013-01-27 06:32:00,
2013-01-27 01:42:00,61.0,59.0,30.20,NNE,26,3.0,3.0,94,-99.99,,,-99.99,,2013-01-27 06:42:00,
2013-01-27 01:52:00,60.0,59.0,30.20,NNE,22,3.0,4.0,95,-99.99,,,-99.99,,2013-01-27 06:52:00,
2013-01-27 02:01:00,60.0,59.0,30.20,NNE,22,3.0,4.0,95,-99.99,,,-99.99,,2013-01-27 07:01:00,
2013-01-27 02:14:00,60.0,59.0,30.20,NNE,27,2.0,3.0,95,-99.99,,,-99.99,,2013-01-27 07:14:00,
2013-01-27 02:21:00,60.0,59.0,30.20,NNE,27,2.0,3.0,95,-99.99,,,-99.99,,2013-01-27 07:21:00,
2013-01-27 02:32:00,61.0,60.0,30.20,NE,55,1.0,3.0,96,-99.99,,,-99.99,,2013-01-27 07:32:00,
2013-01-27 02:42:00,61.0,60.0,30.20,NNE,29,3.0,5.0,95,-99.99,,,-99.99,,2013-01-27 07:42:00,
2013-01-27 02:52:00,62.0,60.0,30.19,NNE,30,4.0,5.0,93,-99.99,,,-99.99,,2013-01-27 07:52:00,
2013-01-27 03:02:00,62.0,60.0,30.19,NNE,30,4.0,5.0,93,-99.99,,,-99.99,,2013-01-27 08:02:00,
2013-01-27 03:12:00,62.0,59.0,30.19,NNE,31,4.0,5.0,91,-99.99,,,-99.99,,2013-01-27 08:12:00,
2013-01-27 03:22:00,62.0,59.0,30.19,NNE,31,4.0,5.0,91,-99.99,,,-99.99,,2013-01-27 08:22:00,
2013-01-27 03:32:00,62.0,59.0,30.19,NNE,31,4.0,5.0,91,-99.99,,,-99.99,,2013-01-27 08:32:00,
2013-01-27 03:42:00,62.0,59.0,30.19,NNE,32,5.0,7.0,89,-99.99,,,-99.99,,2013-01-27 08:42:00,
2013-01-27 03:52:00,62.0,59.0,30.19,NNE,23,4.0,6.0,89,-99.99,,,-99.99,,2013-01-27 08:52:00,
2013-01-27 04:03:00,62.0,59.0,30.19,NNE,23,4.0,6.0,89,-99.99,,,-99.99,,2013-01-27 09:03:00,
2013-01-27 04:11:00,62.0,59.0,30.19,NNE,26,4.0,5.0,91,-99.99,,,-99.99,,2013-01-27 09:11:00,
2013-01-27 04:21:00,62.0,59.0,30.19,NNE,26,4.0,5.0,91,-99.99,,,-99.99,,2013-01-27 09:21:00,
2013-01-27 04:32:00,62.0,58.0,30.19,NNE,23,5.0,6.0,89,-99.99,,,-99.99,,2013-01-27 09:32:00,
2013-01-27 04:42:00,61.0,59.0,30.19,NNE,19,4.0,5.0,90,-99.99,,,-99.99,,2013-01-27 09:42:00,
2013-01-27 04:52:00,60.0,58.0,30.18,NNE,20,4.0,5.0,92,-99.99,,,-99.99,,2013-01-27 09:52:00,
2013-01-27 05:01:00,60.0,58.0,30.18,NNE,20,4.0,5.0,92,-99.99,,,-99.99,,2013-01-27 10:01:00,
2013-01-27 05:11:00,60.0,58.0,30.19,NNE,17,4.0,5.0,93,-99.99,,,-99.99,,2013-01-27 10:11:00,
2013-01-27 05:21:00,60.0,58.0,30.19,NNE,17,4.0,5.0,93,-99.99,,,-99.99,,2013-01-27 10:21:00,
2013-01-27 05:32:00,60.0,59.0,30.19,NNE,16,4.0,6.0,93,-99.99,,,-99.99,,2013-01-27 10:32:00,
2013-01-27 05:42:00,61.0,58.0,30.19,SE,136,4.0,31.0,91,-99.99,,,-99.99,,2013-01-27 10:42:00,
2013-01-27 05:52:00,61.0,57.0,30.19,North,7999,0.0,31.0,86,-99.99,,,-99.99,,2013-01-27 10:52:00,
2013-01-27 06:01:00,61.0,57.0,30.19,North,7999,0.0,31.0,86,-99.99,,,-99.99,,2013-01-27 11:01:00,
2013-01-27 06:11:00,61.0,57.0,30.19,North,7999,0.0,31.0,86,-99.99,,,-99.99,,2013-01-27 11:11:00,
2013-01-27 06:22:00,61.0,57.0,30.19,North,7999,0.0,31.0,86,-99.99,,,-99.99,,2013-01-27 11:22:00,
2013-01-27 06:32:00,61.0,57.0,30.19,North,7999,0.0,31.0,86,-99.99,,,-99.99,,2013-01-27 11:32:00,
2013-01-27 06:42:00,61.0,57.0,30.20,North,7999,0.0,31.0,86,-99.99,,,-99.99,,2013-01-27 11:42:00,
2013-01-27 06:52:00,61.0,57.0,30.21,NNE,21,6.0,7.0,86,-99.99,,,-99.99,,2013-01-27 11:52:00,
2013-01-27 07:02:00,61.0,57.0,30.21,NNE,21,6.0,7.0,86,-99.99,,,-99.99,,2013-01-27 12:02:00,
2013-01-27 07:12:00,62.0,57.0,30.21,NNE,25,5.0,6.0,85,-99.99,,,-99.99,,2013-01-27 12:12:00,
2013-01-27 07:22:00,62.0,57.0,30.21,NNE,25,5.0,6.0,85,-99.99,,,-99.99,,2013-01-27 12:22:00,
2013-01-27 07:32:00,62.0,57.0,30.22,NNE,20,5.0,7.0,85,-99.99,,,-99.99,,2013-01-27 12:32:00,
2013-01-27 07:42:00,62.0,58.0,30.22,NNE,28,6.0,8.0,85,-99.99,,,-99.99,,2013-01-27 12:42:00,
2013-01-27 07:52:00,63.0,58.0,30.22,NE,39,6.0,8.0,82,-99.99,,,-99.99,,2013-01-27 12:52:00,
2013-01-27 08:02:00,63.0,58.0,30.22,NE,39,6.0,8.0,82,-99.99,,,-99.99,,2013-01-27 13:02:00,
2013-01-27 08:12:00,63.0,58.0,30.23,NE,36,6.0,8.0,82,-99.99,,,-99.99,,2013-01-27 13:12:00,
2013-01-27 08:22:00,63.0,58.0,30.23,NE,36,6.0,8.0,82,-99.99,,,-99.99,,2013-01-27 13:22:00,
2013-01-27 08:32:00,64.0,58.0,30.23,NNE,31,4.0,7.0,82,-99.99,,,-99.99,,2013-01-27 13:32:00,
2013-01-27 08:42:00,65.0,59.0,30.23,NNE,29,5.0,8.0,79,-99.99,,,-99.99,,2013-01-27 13:42:00,
2013-01-27 08:52:00,67.0,59.0,30.24,NE,35,5.0,9.0,76,-99.99,,,-99.99,,2013-01-27 13:52:00,
2013-01-27 09:02:00,67.0,59.0,30.24,NE,35,5.0,9.0,76,-99.99,,,-99.99,,2013-01-27 14:02:00,
2013-01-27 09:12:00,68.0,59.0,30.25,NE,35,6.0,9.0,74,-99.99,,,-99.99,,2013-01-27 14:12:00,
2013-01-27 09:22:00,68.0,59.0,30.25,NE,35,6.0,9.0,74,-99.99,,,-99.99,,2013-01-27 14:22:00,
2013-01-27 09:33:00,69.0,60.0,30.25,NE,42,6.0,10.0,71,-99.99,,,-99.99,,2013-01-27 14:33:00,
2013-01-27 09:43:00,70.0,60.0,30.25,NE,42,7.0,10.0,68,-99.99,,,-99.99,,2013-01-27 14:43:00,
2013-01-27 09:53:00,72.0,61.0,30.26,NE,40,6.0,9.0,67,-99.99,,,-99.99,,2013-01-27 14:53:00,
2013-01-27 10:02:00,72.0,61.0,30.26,NE,40,6.0,9.0,67,-99.99,,,-99.99,,2013-01-27 15:02:00,
2013-01-27 10:12:00,73.0,61.0,30.26,NE,48,8.0,13.0,64,-99.99,,,-99.99,,2013-01-27 15:12:00,
2013-01-27 10:22:00,73.0,61.0,30.26,NE,48,8.0,13.0,64,-99.99,,,-99.99,,2013-01-27 15:22:00,
2013-01-27 10:32:00,74.0,61.0,30.26,NE,48,7.0,13.0,63,-99.99,,,-99.99,,2013-01-27 15:32:00,
2013-01-27 10:42:00,75.0,60.0,30.26,NE,54,10.0,15.0,60,-99.99,,,-99.99,,2013-01-27 15:42:00,
2013-01-27 10:53:00,75.0,60.0,30.27,ENE,58,8.0,12.0,59,-99.99,,,-99.99,,2013-01-27 15:53:00,
2013-01-27 11:03:00,75.0,60.0,30.27,ENE,58,8.0,12.0,59,-99.99,,,-99.99,,2013-01-27 16:03:00,
2013-01-27 11:12:00,76.0,60.0,30.27,ENE,57,11.0,17.0,57,-99.99,,,-99.99,,2013-01-27 16:12:00,
2013-01-27 11:22:00,76.0,60.0,30.27,ENE,57,11.0,17.0,57,-99.99,,,-99.99,,2013-01-27 16:22:00,
2013-01-27 11:32:00,76.0,59.0,30.27,ENE,59,11.0,17.0,56,-99.99,,,-99.99,,2013-01-27 16:32:00,
2013-01-27 11:42:00,76.0,59.0,30.26,ENE,73,10.0,15.0,55,-99.99,,,-99.99,,2013-01-27 16:42:00,
2013-01-27 11:53:00,77.0,59.0,30.26,ENE,74,10.0,19.0,55,-99.99,,,-99.99,,2013-01-27 16:53:00,
2013-01-27 12:02:00,77.0,59.0,30.26,ENE,74,10.0,19.0,55,-99.99,,,-99.99,,2013-01-27 17:02:00,
2013-01-27 12:12:00,77.0,59.0,30.26,East,81,11.0,17.0,55,-99.99,,,-99.99,,2013-01-27 17:12:00,
2013-01-27 12:22:00,77.0,59.0,30.26,East,81,11.0,17.0,55,-99.99,,,-99.99,,2013-01-27 17:22:00,
2013-01-27 12:32:00,77.0,59.0,30.26,East,81,11.0,17.0,55,-99.99,,,-99.99,,2013-01-27 17:32:00,
2013-01-27 12:42:00,76.0,60.0,30.25,ENE,77,11.0,20.0,55,-99.99,,,-99.99,,2013-01-27 17:42:00,
2013-01-27 12:53:00,77.0,60.0,30.25,East,84,10.0,18.0,55,-99.99,,,-99.99,,2013-01-27 17:53:00,
2013-01-27 13:03:00,77.0,60.0,30.25,East,84,10.0,18.0,55,-99.99,,,-99.99,,2013-01-27 18:03:00,
2013-01-27 13:12:00,77.0,59.0,30.24,ENE,65,10.0,16.0,53,-99.99,,,-99.99,,2013-01-27 18:12:00,
2013-01-27 13:23:00,77.0,59.0,30.24,ENE,65,10.0,16.0,53,-99.99,,,-99.99,,2013-01-27 18:23:00,
2013-01-27 13:32:00,77.0,59.0,30.23,East,81,10.0,16.0,53,-99.99,,,-99.99,,2013-01-27 18:32:00,
2013-01-27 13:42:00,77.0,59.0,30.23,ENE,67,9.0,15.0,52,-99.99,,,-99.99,,2013-01-27 18:42:00,
2013-01-27 13:53:00,76.0,59.0,30.22,ENE,73,11.0,18.0,53,-99.99,,,-99.99,,2013-01-27 18:53:00,
2013-01-27 14:02:00,76.0,59.0,30.22,ENE,73,11.0,18.0,53,-99.99,,,-99.99,,2013-01-27 19:02:00,
2013-01-27 14:12:00,77.0,59.0,30.22,East,79,11.0,19.0,53,-99.99,,,-99.99,,2013-01-27 19:12:00,
2013-01-27 14:22:00,77.0,59.0,30.22,East,79,11.0,19.0,53,-99.99,,,-99.99,,2013-01-27 19:22:00,
2013-01-27 14:32:00,77.0,59.0,30.22,East,79,11.0,19.0,53,-99.99,,,-99.99,,2013-01-27 19:32:00,
2013-01-27 14:42:00,76.0,59.0,30.22,East,93,10.0,19.0,56,-99.99,,,-99.99,,2013-01-27 19:42:00,
2013-01-27 14:52:00,77.0,59.0,30.21,East,91,10.0,15.0,54,-99.99,,,-99.99,,2013-01-27 19:52:00,
2013-01-27 15:03:00,77.0,59.0,30.21,East,91,10.0,15.0,54,-99.99,,,-99.99,,2013-01-27 20:03:00,
2013-01-27 15:12:00,77.0,59.0,30.21,East,95,11.0,18.0,53,-99.99,,,-99.99,,2013-01-27 20:12:00,
2013-01-27 15:22:00,77.0,59.0,30.21,East,95,11.0,18.0,53,-99.99,,,-99.99,,2013-01-27 20:22:00,
2013-01-27 15:33:00,77.0,59.0,30.21,East,95,11.0,18.0,53,-99.99,,,-99.99,,2013-01-27 20:33:00,
2013-01-27 15:42:00,76.0,59.0,30.21,ENE,75,11.0,17.0,55,-99.99,,,-99.99,,2013-01-27 20:42:00,
2013-01-27 15:52:00,76.0,59.0,30.20,East,91,11.0,18.0,54,-99.99,,,-99.99,,2013-01-27 20:52:00,
2013-01-27 16:02:00,76.0,59.0,30.20,East,91,11.0,18.0,54,-99.99,,,-99.99,,2013-01-27 21:02:00,
2013-01-27 16:12:00,76.0,59.0,30.20,East,98,10.0,17.0,56,-99.99,,,-99.99,,2013-01-27 21:12:00,
2013-01-27 16:22:00,76.0,59.0,30.20,East,98,10.0,17.0,56,-99.99,,,-99.99,,2013-01-27 21:22:00,
2013-01-27 16:33:00,76.0,60.0,30.21,East,87,9.0,15.0,56,-99.99,,,-99.99,,2013-01-27 21:33:00,
2013-01-27 16:42:00,76.0,59.0,30.21,East,100,10.0,16.0,56,-99.99,,,-99.99,,2013-01-27 21:42:00,
2013-01-27 16:52:00,75.0,59.0,30.21,East,82,10.0,15.0,56,-99.99,,,-99.99,,2013-01-27 21:52:00,
2013-01-27 17:02:00,75.0,59.0,30.21,East,82,10.0,15.0,56,-99.99,,,-99.99,,2013-01-27 22:02:00,
2013-01-27 17:12:00,75.0,59.0,30.21,East,93,11.0,18.0,56,-99.99,,,-99.99,,2013-01-27 22:12:00,
2013-01-27 17:22:00,75.0,59.0,30.21,East,93,11.0,18.0,56,-99.99,,,-99.99,,2013-01-27 22:22:00,
2013-01-27 17:32:00,75.0,58.0,30.22,East,96,9.0,15.0,56,-99.99,,,-99.99,,2013-01-27 22:32:00,
2013-01-27 17:42:00,74.0,58.0,30.22,East,85,10.0,15.0,57,-99.99,,,-99.99,,2013-01-27 22:42:00,
2013-01-27 17:52:00,73.0,58.0,30.23,East,89,8.0,13.0,58,-99.99,,,-99.99,,2013-01-27 22:52:00,
2013-01-27 18:02:00,73.0,58.0,30.23,East,89,8.0,13.0,58,-99.99,,,-99.99,,2013-01-27 23:02:00,
2013-01-27 18:12:00,73.0,58.0,30.23,East,91,8.0,14.0,60,-99.99,,,-99.99,,2013-01-27 23:12:00,
2013-01-27 18:22:00,73.0,58.0,30.23,East,91,8.0,14.0,60,-99.99,,,-99.99,,2013-01-27 23:22:00,
2013-01-27 18:32:00,72.0,58.0,30.23,East,91,7.0,10.0,61,-99.99,,,-99.99,,2013-01-27 23:32:00,
2013-01-27 18:42:00,71.0,59.0,30.24,East,89,6.0,10.0,64,-99.99,,,-99.99,,2013-01-27 23:42:00,
2013-01-27 18:53:00,71.0,59.0,30.24,East,87,5.0,8.0,67,-99.99,,,-99.99,,2013-01-27 23:53:00,
2013-01-27 19:02:00,71.0,59.0,30.24,East,87,5.0,8.0,67,-99.99,,,-99.99,,2013-01-28 00:02:00,
2013-01-27 19:12:00,70.0,60.0,30.24,East,84,5.0,8.0,68,-99.99,,,-99.99,,2013-01-28 00:12:00,
2013-01-27 19:22:00,70.0,60.0,30.24,East,84,5.0,8.0,68,-99.99,,,-99.99,,2013-01-28 00:22:00,
2013-01-27 19:32:00,70.0,60.0,30.24,East,84,4.0,7.0,70,-99.99,,,-99.99,,2013-01-28 00:32:00,
2013-01-27 19:42:00,69.0,60.0,30.25,East,84,4.0,5.0,72,-99.99,,,-99.99,,2013-01-28 00:42:00,
2013-01-27 19:52:00,69.0,60.0,30.25,ENE,78,3.0,5.0,73,-99.99,,,-99.99,,2013-01-28 00:52:00,
2013-01-27 20:02:00,69.0,60.0,30.25,ENE,78,3.0,5.0,73,-99.99,,,-99.99,,2013-01-28 01:02:00,
2013-01-27 20:12:00,68.0,60.0,30.25,ENE,72,4.0,5.0,76,-99.99,,,-99.99,,2013-01-28 01:12:00,
2013-01-27 20:22:00,68.0,60.0,30.25,ENE,72,4.0,5.0,76,-99.99,,,-99.99,,2013-01-28 01:22:00,
2013-01-27 20:33:00,68.0,61.0,30.25,East,82,4.0,7.0,77,-99.99,,,-99.99,,2013-01-28 01:33:00,
2013-01-27 20:42:00,68.0,61.0,30.26,East,84,4.0,7.0,78,-99.99,,,-99.99,,2013-01-28 01:42:00,
2013-01-27 20:52:00,68.0,61.0,30.26,East,90,5.0,7.0,78,-99.99,,,-99.99,,2013-01-28 01:52:00,
2013-01-27 21:02:00,68.0,61.0,30.26,East,90,5.0,7.0,78,-99.99,,,-99.99,,2013-01-28 02:02:00,
2013-01-27 21:11:00,69.0,62.0,30.26,East,90,5.0,7.0,78,-99.99,,,-99.99,,2013-01-28 02:11:00,
2013-01-27 21:22:00,69.0,62.0,30.26,East,90,5.0,7.0,78,-99.99,,,-99.99,,2013-01-28 02:22:00,
2013-01-27 21:32:00,70.0,62.0,30.27,East,95,6.0,11.0,76,-99.99,,,-99.99,,2013-01-28 02:32:00,
2013-01-27 21:42:00,70.0,62.0,30.27,East,91,7.0,10.0,75,-99.99,,,-99.99,,2013-01-28 02:42:00,
2013-01-27 21:53:00,70.0,62.0,30.27,East,87,5.0,7.0,76,-99.99,,,-99.99,,2013-01-28 02:53:00,
2013-01-27 22:02:00,70.0,62.0,30.27,East,87,5.0,7.0,76,-99.99,,,-99.99,,2013-01-28 03:02:00,
2013-01-27 22:12:00,70.0,62.0,30.27,East,79,6.0,8.0,76,-99.99,,,-99.99,,2013-01-28 03:12:00,
2013-01-27 22:22:00,70.0,62.0,30.27,East,79,6.0,8.0,76,-99.99,,,-99.99,,2013-01-28 03:22:00,
2013-01-27 22:32:00,70.0,62.0,30.27,East,87,5.0,9.0,77,-99.99,,,-99.99,,2013-01-28 03:32:00,
2013-01-27 22:42:00,69.0,62.0,30.28,East,94,6.0,9.0,77,-99.99,,,-99.99,,2013-01-28 03:42:00,
2013-01-27 22:53:00,70.0,62.0,30.28,East,98,6.0,9.0,77,-99.99,,,-99.99,,2013-01-28 03:53:00,
2013-01-27 23:02:00,70.0,62.0,30.28,East,98,6.0,9.0,77,-99.99,,,-99.99,,2013-01-28 04:02:00,
2013-01-27 23:12:00,69.0,62.0,30.27,East,92,5.0,8.0,77,-99.99,,,-99.99,,2013-01-28 04:12:00,
2013-01-27 23:22:00,69.0,62.0,30.27,East,92,5.0,8.0,77,-99.99,,,-99.99,,2013-01-28 04:22:00,
2013-01-27 23:32:00,69.0,62.0,30.27,East,91,6.0,8.0,77,-99.99,,,-99.99,,2013-01-28 04:32:00,
2013-01-27 23:42:00,69.0,62.0,30.27,East,91,6.0,8.0,78,-99.99,,,-99.99,,2013-01-28 04:42:00,
2013-01-27 23:52:00,69.0,62.0,30.26,East,88,6.0,10.0,79,-99.99,,,-99.99,,2013-01-28 04:52:00,